Aviation Digital Data Service (ADDS)

Output produced by METARs form (1936 UTC 23 January 2019)
found at http://www.aviationweather.gov/metar/data/
 
METAR text: OPLA 231925Z 00000KT 4000 FU NSC 08/07 Q1021 RMK QFE995 RMK A30.13
Conditions at: OPLA (LAHORE (CIV/MIL), PK) observed 1925 UTC 23 January 2019
Temperature: 8.0°C (46°F)
Dewpoint: 7.0°C (45°F) [RH = 93%]
Pressure (altimeter): 30.15 inches Hg (1021.0 mb)
Winds: calm
Visibility: 2.49 miles (4.01 km)
Ceiling: at least 12,000 feet AGL
Clouds: sky clear below 12,000 feet AGL
Weather: FU  (smoke)

METAR text: OPLA 231855Z 00000KT 4000 FU NSC 09/08 Q1021 NOSIG RMK QFE995 RMK A30.13
Conditions at: OPLA (LAHORE (CIV/MIL), PK) observed 1855 UTC 23 January 2019
Temperature: 9.0°C (48°F)
Dewpoint: 8.0°C (46°F) [RH = 93%]
Pressure (altimeter): 30.15 inches Hg (1021.0 mb)
Winds: calm
Visibility: 2.49 miles (4.01 km)
Ceiling: at least 12,000 feet AGL
Clouds: sky clear below 12,000 feet AGL
Weather: FU  (smoke)

METAR text: OPLA 231825Z 00000KT 4000 FU NSC 09/08 Q1021 RMK QFE995 RMK A30.13
Conditions at: OPLA (LAHORE (CIV/MIL), PK) observed 1825 UTC 23 January 2019
Temperature: 9.0°C (48°F)
Dewpoint: 8.0°C (46°F) [RH = 93%]
Pressure (altimeter): 30.15 inches Hg (1021.0 mb)
Winds: calm
Visibility: 2.49 miles (4.01 km)
Ceiling: at least 12,000 feet AGL
Clouds: sky clear below 12,000 feet AGL
Weather: FU  (smoke)

METAR text: OPLA 231755Z 00000KT 4000 FU NSC 09/08 Q1021 RMK QFE995 NOSIG RMK A30.13
Conditions at: OPLA (LAHORE (CIV/MIL), PK) observed 1755 UTC 23 January 2019
Temperature: 9.0°C (48°F)
Dewpoint: 8.0°C (46°F) [RH = 93%]
Pressure (altimeter): 30.15 inches Hg (1021.0 mb)
Winds: calm
Visibility: 2.49 miles (4.01 km)
Ceiling: at least 12,000 feet AGL
Clouds: sky clear below 12,000 feet AGL
Weather: FU  (smoke)

METAR text: OPLA 231725Z 00000KT 4000 FU NSC 09/08 Q1021 RMK QFE995 RMK A30.13
Conditions at: OPLA (LAHORE (CIV/MIL), PK) observed 1725 UTC 23 January 2019
Temperature: 9.0°C (48°F)
Dewpoint: 8.0°C (46°F) [RH = 93%]
Pressure (altimeter): 30.15 inches Hg (1021.0 mb)
Winds: calm
Visibility: 2.49 miles (4.01 km)
Ceiling: at least 12,000 feet AGL
Clouds: sky clear below 12,000 feet AGL
Weather: FU  (smoke)

METAR text: OPLA 231655Z 00000KT 4000 FU NSC 10/08 Q1021 NOSIG RMK QFE995 RMK A30.13
Conditions at: OPLA (LAHORE (CIV/MIL), PK) observed 1655 UTC 23 January 2019
Temperature: 10.0°C (50°F)
Dewpoint: 8.0°C (46°F) [RH = 87%]
Pressure (altimeter): 30.15 inches Hg (1021.0 mb)
Winds: calm
Visibility: 2.49 miles (4.01 km)
Ceiling: at least 12,000 feet AGL
Clouds: sky clear below 12,000 feet AGL
Weather: FU  (smoke)

METAR text: OPLA 231625Z 00000KT 4000 FU NSC 10/08 Q1021 RMK QFE995 RMK A30.12
Conditions at: OPLA (LAHORE (CIV/MIL), PK) observed 1625 UTC 23 January 2019
Temperature: 10.0°C (50°F)
Dewpoint: 8.0°C (46°F) [RH = 87%]
Pressure (altimeter): 30.15 inches Hg (1021.0 mb)
Winds: calm
Visibility: 2.49 miles (4.01 km)
Ceiling: at least 12,000 feet AGL
Clouds: sky clear below 12,000 feet AGL
Weather: FU  (smoke)

METAR text: OPLA 231555Z 00000KT 4000 FU NSC 10/08 Q1021 NOSIG RMK QFE995 RMK A30.12
Conditions at: OPLA (LAHORE (CIV/MIL), PK) observed 1555 UTC 23 January 2019
Temperature: 10.0°C (50°F)
Dewpoint: 8.0°C (46°F) [RH = 87%]
Pressure (altimeter): 30.15 inches Hg (1021.0 mb)
Winds: calm
Visibility: 2.49 miles (4.01 km)
Ceiling: at least 12,000 feet AGL
Clouds: sky clear below 12,000 feet AGL
Weather: FU  (smoke)

METAR text: OPLA 231525Z 32003KT 4000 FU NSC 10/08 Q1020 RMK QFE994 RMK A30.09
Conditions at: OPLA (LAHORE (CIV/MIL), PK) observed 1525 UTC 23 January 2019
Temperature: 10.0°C (50°F)
Dewpoint: 8.0°C (46°F) [RH = 87%]
Pressure (altimeter): 30.12 inches Hg (1020.0 mb)
Winds: from the NW (320 degrees) at 3 MPH (3 knots; 1.5 m/s)
Visibility: 2.49 miles (4.01 km)
Ceiling: at least 12,000 feet AGL
Clouds: sky clear below 12,000 feet AGL
Weather: FU  (smoke)

METAR text: OPLA 231455Z 32005KT 4000 FU NSC 11/08 Q1020 NOSIG RMK QFE994 RMK A30.09
Conditions at: OPLA (LAHORE (CIV/MIL), PK) observed 1455 UTC 23 January 2019
Temperature: 11.0°C (52°F)
Dewpoint: 8.0°C (46°F) [RH = 82%]
Pressure (altimeter): 30.12 inches Hg (1020.0 mb)
Winds: from the NW (320 degrees) at 6 MPH (5 knots; 2.6 m/s)
Visibility: 2.49 miles (4.01 km)
Ceiling: at least 12,000 feet AGL
Clouds: sky clear below 12,000 feet AGL
Weather: FU  (smoke)

METAR text: OPLA 231425Z 32004KT 4000 FU SCT100 11/08 Q1019 RMK QFE994 RMK A30.09
Conditions at: OPLA (LAHORE (CIV/MIL), PK) observed 1425 UTC 23 January 2019
Temperature: 11.0°C (52°F)
Dewpoint: 8.0°C (46°F) [RH = 82%]
Pressure (altimeter): 30.09 inches Hg (1019.0 mb)
Winds: from the NW (320 degrees) at 5 MPH (4 knots; 2.1 m/s)
Visibility: 2.49 miles (4.01 km)
Ceiling: at least 12,000 feet AGL
Clouds: scattered clouds at 10000 feet AGL
Weather: FU  (smoke)

METAR text: OPLA 231355Z 32003KT 4000 FU SCT100 12/08 Q1019 NOSIG RMK QFE993 RMK A30.09
Conditions at: OPLA (LAHORE (CIV/MIL), PK) observed 1355 UTC 23 January 2019
Temperature: 12.0°C (54°F)
Dewpoint: 8.0°C (46°F) [RH = 76%]
Pressure (altimeter): 30.09 inches Hg (1019.0 mb)
Winds: from the NW (320 degrees) at 3 MPH (3 knots; 1.5 m/s)
Visibility: 2.49 miles (4.01 km)
Ceiling: at least 12,000 feet AGL
Clouds: scattered clouds at 10000 feet AGL
Weather: FU  (smoke)

METAR text: OPLA 231325Z 33004KT 4000 FU SCT100 13/07 Q1019 RMK QFE993 RMK A30.07
Conditions at: OPLA (LAHORE (CIV/MIL), PK) observed 1325 UTC 23 January 2019
Temperature: 13.0°C (55°F)
Dewpoint: 7.0°C (45°F) [RH = 67%]
Pressure (altimeter): 30.09 inches Hg (1019.0 mb)
Winds: from the NNW (330 degrees) at 5 MPH (4 knots; 2.1 m/s)
Visibility: 2.49 miles (4.01 km)
Ceiling: at least 12,000 feet AGL
Clouds: scattered clouds at 10000 feet AGL
Weather: FU  (smoke)

METAR text: OPLA 231255Z 33004KT 4000 FU SCT100 14/07 Q1019 NOSIG RMK QFE993 RMK A30.07
Conditions at: OPLA (LAHORE (CIV/MIL), PK) observed 1255 UTC 23 January 2019
Temperature: 14.0°C (57°F)
Dewpoint: 7.0°C (45°F) [RH = 63%]
Pressure (altimeter): 30.09 inches Hg (1019.0 mb)
Winds: from the NNW (330 degrees) at 5 MPH (4 knots; 2.1 m/s)
Visibility: 2.49 miles (4.01 km)
Ceiling: at least 12,000 feet AGL
Clouds: scattered clouds at 10000 feet AGL
Weather: FU  (smoke)

METAR text: OPLA 231225Z 32003KT 4000 FU FEW040 SCT100 15/08 Q1019 RMK QFE993 RMK A30.06
Conditions at: OPLA (LAHORE (CIV/MIL), PK) observed 1225 UTC 23 January 2019
Temperature: 15.0°C (59°F)
Dewpoint: 8.0°C (46°F) [RH = 63%]
Pressure (altimeter): 30.09 inches Hg (1019.0 mb)
Winds: from the NW (320 degrees) at 3 MPH (3 knots; 1.5 m/s)
Visibility: 2.49 miles (4.01 km)
Ceiling: at least 12,000 feet AGL
Clouds: few clouds at 4000 feet AGL
scattered clouds at 10000 feet AGL
Weather: FU  (smoke)

METAR text: OPLA 231155Z 32003KT 4000 FU FEW040 SCT100 15/08 Q1018 NOSIG RMK QFE993 RMK A30.06
Conditions at: OPLA (LAHORE (CIV/MIL), PK) observed 1155 UTC 23 January 2019
Temperature: 15.0°C (59°F)
Dewpoint: 8.0°C (46°F) [RH = 63%]
Pressure (altimeter): 30.06 inches Hg (1018.0 mb)
Winds: from the NW (320 degrees) at 3 MPH (3 knots; 1.5 m/s)
Visibility: 2.49 miles (4.01 km)
Ceiling: at least 12,000 feet AGL
Clouds: few clouds at 4000 feet AGL
scattered clouds at 10000 feet AGL
Weather: FU  (smoke)

METAR text: OPLA 231125Z 33006KT 4000 FU FEW040 SCT100 15/09 Q1018 RMK QFE993 RMK A30.06
Conditions at: OPLA (LAHORE (CIV/MIL), PK) observed 1125 UTC 23 January 2019
Temperature: 15.0°C (59°F)
Dewpoint: 9.0°C (48°F) [RH = 67%]
Pressure (altimeter): 30.06 inches Hg (1018.0 mb)
Winds: from the NNW (330 degrees) at 7 MPH (6 knots; 3.1 m/s)
Visibility: 2.49 miles (4.01 km)
Ceiling: at least 12,000 feet AGL
Clouds: few clouds at 4000 feet AGL
scattered clouds at 10000 feet AGL
Weather: FU  (smoke)

METAR text: OPLA 231055Z 33005KT 4000 FU FEW040 SCT100 16/09 Q1019 NOSIG RMK QFE993 RMK A30.06
Conditions at: OPLA (LAHORE (CIV/MIL), PK) observed 1055 UTC 23 January 2019
Temperature: 16.0°C (61°F)
Dewpoint: 9.0°C (48°F) [RH = 63%]
Pressure (altimeter): 30.09 inches Hg (1019.0 mb)
Winds: from the NNW (330 degrees) at 6 MPH (5 knots; 2.6 m/s)
Visibility: 2.49 miles (4.01 km)
Ceiling: at least 12,000 feet AGL
Clouds: few clouds at 4000 feet AGL
scattered clouds at 10000 feet AGL
Weather: FU  (smoke)

METAR text: OPLA 231025Z 35007KT 4000 FU FEW040 SCT100 16/08 Q1019 RMK QFE993 RMK A30.06
Conditions at: OPLA (LAHORE (CIV/MIL), PK) observed 1025 UTC 23 January 2019
Temperature: 16.0°C (61°F)
Dewpoint: 8.0°C (46°F) [RH = 59%]
Pressure (altimeter): 30.09 inches Hg (1019.0 mb)
Winds: from the N (350 degrees) at 8 MPH (7 knots; 3.6 m/s)
Visibility: 2.49 miles (4.01 km)
Ceiling: at least 12,000 feet AGL
Clouds: few clouds at 4000 feet AGL
scattered clouds at 10000 feet AGL
Weather: FU  (smoke)

METAR text: OPLA 230955Z 36006KT 4000 FU FEW040 SCT100 16/08 Q1019 NOSIG RMK QFE993 RMK A30.06
Conditions at: OPLA (LAHORE (CIV/MIL), PK) observed 0955 UTC 23 January 2019
Temperature: 16.0°C (61°F)
Dewpoint: 8.0°C (46°F) [RH = 59%]
Pressure (altimeter): 30.09 inches Hg (1019.0 mb)
Winds: from the N (360 degrees) at 7 MPH (6 knots; 3.1 m/s)
Visibility: 2.49 miles (4.01 km)
Ceiling: at least 12,000 feet AGL
Clouds: few clouds at 4000 feet AGL
scattered clouds at 10000 feet AGL
Weather: FU  (smoke)

METAR text: OPLA 230925Z 34005KT 4000 FU SCT040 SCT100 16/08 Q1019 RMK QFE993 RMK A30.09
Conditions at: OPLA (LAHORE (CIV/MIL), PK) observed 0925 UTC 23 January 2019
Temperature: 16.0°C (61°F)
Dewpoint: 8.0°C (46°F) [RH = 59%]
Pressure (altimeter): 30.09 inches Hg (1019.0 mb)
Winds: from the NNW (340 degrees) at 6 MPH (5 knots; 2.6 m/s)
Visibility: 2.49 miles (4.01 km)
Ceiling: at least 12,000 feet AGL
Clouds: scattered clouds at 4000 feet AGL
scattered clouds at 10000 feet AGL
Weather: FU  (smoke)

METAR text: OPLA 230825Z 34005KT 4000 FU FEW040 SCT100 16/08 Q1019 NOSIG RMK QFE993 RMK A30.09
Conditions at: OPLA (LAHORE (CIV/MIL), PK) observed 0825 UTC 23 January 2019
Temperature: 16.0°C (61°F)
Dewpoint: 8.0°C (46°F) [RH = 59%]
Pressure (altimeter): 30.09 inches Hg (1019.0 mb)
Winds: from the NNW (340 degrees) at 6 MPH (5 knots; 2.6 m/s)
Visibility: 2.49 miles (4.01 km)
Ceiling: at least 12,000 feet AGL
Clouds: few clouds at 4000 feet AGL
scattered clouds at 10000 feet AGL
Weather: FU  (smoke)

METAR text: OPLA 230755Z 32003KT 5000 FU FEW040 16/08 Q1019 BECMG 4000 RMK QFE993 RMK A30.09
Conditions at: OPLA (LAHORE (CIV/MIL), PK) observed 0755 UTC 23 January 2019
Temperature: 16.0°C (61°F)
Dewpoint: 8.0°C (46°F) [RH = 59%]
Pressure (altimeter): 30.09 inches Hg (1019.0 mb)
Winds: from the NW (320 degrees) at 3 MPH (3 knots; 1.5 m/s)
Visibility: 3 miles ( 5 km)
Ceiling: at least 12,000 feet AGL
Clouds: few clouds at 4000 feet AGL
Weather: FU  (smoke)

METAR text: OPLA 230725Z 24003KT 5000 FU NSC 16/08 Q1019 RMK QFE994 RMK A30.10
Conditions at: OPLA (LAHORE (CIV/MIL), PK) observed 0725 UTC 23 January 2019
Temperature: 16.0°C (61°F)
Dewpoint: 8.0°C (46°F) [RH = 59%]
Pressure (altimeter): 30.09 inches Hg (1019.0 mb)
Winds: from the WSW (240 degrees) at 3 MPH (3 knots; 1.5 m/s)
Visibility: 3 miles ( 5 km)
Ceiling: at least 12,000 feet AGL
Clouds: sky clear below 12,000 feet AGL
Weather: FU  (smoke)

METAR text: OPLA 230655Z 00000KT 5000 FU NSC 16/08 Q1020 NOSIG RMK QFE994 RMK A30.10
Conditions at: OPLA (LAHORE (CIV/MIL), PK) observed 0655 UTC 23 January 2019
Temperature: 16.0°C (61°F)
Dewpoint: 8.0°C (46°F) [RH = 59%]
Pressure (altimeter): 30.12 inches Hg (1020.0 mb)
Winds: calm
Visibility: 3 miles ( 5 km)
Ceiling: at least 12,000 feet AGL
Clouds: sky clear below 12,000 feet AGL
Weather: FU  (smoke)

METAR text: OPLA 230555Z 23003KT 5000 FU NSC 14/07 Q1020 NOSIG RMK QFE994 RMK A30.11
Conditions at: OPLA (LAHORE (CIV/MIL), PK) observed 0555 UTC 23 January 2019
Temperature: 14.0°C (57°F)
Dewpoint: 7.0°C (45°F) [RH = 63%]
Pressure (altimeter): 30.12 inches Hg (1020.0 mb)
Winds: from the SW (230 degrees) at 3 MPH (3 knots; 1.5 m/s)
Visibility: 3 miles ( 5 km)
Ceiling: at least 12,000 feet AGL
Clouds: sky clear below 12,000 feet AGL
Weather: FU  (smoke)

METAR text: OPLA 230525Z 00000KT 4000 FU NSC 12/07 Q1020 BECMG 5000 RMK QFE994 RMK A30.09
Conditions at: OPLA (LAHORE (CIV/MIL), PK) observed 0525 UTC 23 January 2019
Temperature: 12.0°C (54°F)
Dewpoint: 7.0°C (45°F) [RH = 71%]
Pressure (altimeter): 30.12 inches Hg (1020.0 mb)
Winds: calm
Visibility: 2.49 miles (4.01 km)
Ceiling: at least 12,000 feet AGL
Clouds: sky clear below 12,000 feet AGL
Weather: FU  (smoke)

METAR text: OPLA 230425Z 00000KT 4000 FU NSC 11/06 Q1020 RMK QFE994 RMK A30.07
Conditions at: OPLA (LAHORE (CIV/MIL), PK) observed 0425 UTC 23 January 2019
Temperature: 11.0°C (52°F)
Dewpoint: 6.0°C (43°F) [RH = 71%]
Pressure (altimeter): 30.12 inches Hg (1020.0 mb)
Winds: calm
Visibility: 2.49 miles (4.01 km)
Ceiling: at least 12,000 feet AGL
Clouds: sky clear below 12,000 feet AGL
Weather: FU  (smoke)

METAR text: OPLA 230255Z 00000KT 4000 FU NSC 07/05 Q1019 NOSIG RMK QFE993 RMK A30.05
Conditions at: OPLA (LAHORE (CIV/MIL), PK) observed 0255 UTC 23 January 2019
Temperature: 7.0°C (45°F)
Dewpoint: 5.0°C (41°F) [RH = 87%]
Pressure (altimeter): 30.09 inches Hg (1019.0 mb)
Winds: calm
Visibility: 2.49 miles (4.01 km)
Ceiling: at least 12,000 feet AGL
Clouds: sky clear below 12,000 feet AGL
Weather: FU  (smoke)

METAR text: OPLA 230225Z 00000KT 4000 FU FEW100 06/04 Q1018 RMK QFE992 RMK A30.03
Conditions at: OPLA (LAHORE (CIV/MIL), PK) observed 0225 UTC 23 January 2019
Temperature: 6.0°C (43°F)
Dewpoint: 4.0°C (39°F) [RH = 87%]
Pressure (altimeter): 30.06 inches Hg (1018.0 mb)
Winds: calm
Visibility: 2.49 miles (4.01 km)
Ceiling: at least 12,000 feet AGL
Clouds: few clouds at 10000 feet AGL
Weather: FU  (smoke)

METAR text: OPLA 230155Z 00000KT 4000 FU FEW100 06/04 Q1018 NOSIG RMK QFE992 RMK A30.04
Conditions at: OPLA (LAHORE (CIV/MIL), PK) observed 0155 UTC 23 January 2019
Temperature: 6.0°C (43°F)
Dewpoint: 4.0°C (39°F) [RH = 87%]
Pressure (altimeter): 30.06 inches Hg (1018.0 mb)
Winds: calm
Visibility: 2.49 miles (4.01 km)
Ceiling: at least 12,000 feet AGL
Clouds: few clouds at 10000 feet AGL
Weather: FU  (smoke)

METAR text: OPLA 230125Z 03003KT 4000 FU FEW100 05/03 Q1018 RMK QFE992 RMK A30.03
Conditions at: OPLA (LAHORE (CIV/MIL), PK) observed 0125 UTC 23 January 2019
Temperature: 5.0°C (41°F)
Dewpoint: 3.0°C (37°F) [RH = 87%]
Pressure (altimeter): 30.06 inches Hg (1018.0 mb)
Winds: from the NNE (30 degrees) at 3 MPH (3 knots; 1.5 m/s)
Visibility: 2.49 miles (4.01 km)
Ceiling: at least 12,000 feet AGL
Clouds: few clouds at 10000 feet AGL
Weather: FU  (smoke)

METAR text: OPLA 230055Z 04003KT 4000 FU FEW100 05/03 Q1018 NOSIG RMK QFE992 RMK A30.03
Conditions at: OPLA (LAHORE (CIV/MIL), PK) observed 0055 UTC 23 January 2019
Temperature: 5.0°C (41°F)
Dewpoint: 3.0°C (37°F) [RH = 87%]
Pressure (altimeter): 30.06 inches Hg (1018.0 mb)
Winds: from the NE (40 degrees) at 3 MPH (3 knots; 1.5 m/s)
Visibility: 2.49 miles (4.01 km)
Ceiling: at least 12,000 feet AGL
Clouds: few clouds at 10000 feet AGL
Weather: FU  (smoke)

METAR text: OPLA 230025Z 02003KT 4000 FU FEW100 05/03 Q1017 RMK QFE992 RMK A30.02
Conditions at: OPLA (LAHORE (CIV/MIL), PK) observed 0025 UTC 23 January 2019
Temperature: 5.0°C (41°F)
Dewpoint: 3.0°C (37°F) [RH = 87%]
Pressure (altimeter): 30.03 inches Hg (1017.0 mb)
Winds: from the NNE (20 degrees) at 3 MPH (3 knots; 1.5 m/s)
Visibility: 2.49 miles (4.01 km)
Ceiling: at least 12,000 feet AGL
Clouds: few clouds at 10000 feet AGL
Weather: FU  (smoke)

METAR text: OPLA 222355Z 01003KT 4000 FU FEW100 05/03 Q1017 NOSIG RMK QFE992 RMK A30.02
Conditions at: OPLA (LAHORE (CIV/MIL), PK) observed 2355 UTC 22 January 2019
Temperature: 5.0°C (41°F)
Dewpoint: 3.0°C (37°F) [RH = 87%]
Pressure (altimeter): 30.03 inches Hg (1017.0 mb)
Winds: from the N (10 degrees) at 3 MPH (3 knots; 1.5 m/s)
Visibility: 2.49 miles (4.01 km)
Ceiling: at least 12,000 feet AGL
Clouds: few clouds at 10000 feet AGL
Weather: FU  (smoke)

METAR text: OPLA 222325Z 10005KT 4000 FU SCT100 06/04 Q1017 RMK QFE991 RMK A30.01
Conditions at: OPLA (LAHORE (CIV/MIL), PK) observed 2325 UTC 22 January 2019
Temperature: 6.0°C (43°F)
Dewpoint: 4.0°C (39°F) [RH = 87%]
Pressure (altimeter): 30.03 inches Hg (1017.0 mb)
Winds: from the E (100 degrees) at 6 MPH (5 knots; 2.6 m/s)
Visibility: 2.49 miles (4.01 km)
Ceiling: at least 12,000 feet AGL
Clouds: scattered clouds at 10000 feet AGL
Weather: FU  (smoke)

METAR text: OPLA 222255Z 11005KT 4000 FU SCT100 06/04 Q1017 NOSIG RMK QFE991 RMK A30.01
Conditions at: OPLA (LAHORE (CIV/MIL), PK) observed 2255 UTC 22 January 2019
Temperature: 6.0°C (43°F)
Dewpoint: 4.0°C (39°F) [RH = 87%]
Pressure (altimeter): 30.03 inches Hg (1017.0 mb)
Winds: from the ESE (110 degrees) at 6 MPH (5 knots; 2.6 m/s)
Visibility: 2.49 miles (4.01 km)
Ceiling: at least 12,000 feet AGL
Clouds: scattered clouds at 10000 feet AGL
Weather: FU  (smoke)

METAR text: OPLA 222155Z 00000KT 4000 FU SCT040 SCT100 07/05 Q1017 NOSIG RMK QFE992 RMK A30.02
Conditions at: OPLA (LAHORE (CIV/MIL), PK) observed 2155 UTC 22 January 2019
Temperature: 7.0°C (45°F)
Dewpoint: 5.0°C (41°F) [RH = 87%]
Pressure (altimeter): 30.03 inches Hg (1017.0 mb)
Winds: calm
Visibility: 2.49 miles (4.01 km)
Ceiling: at least 12,000 feet AGL
Clouds: scattered clouds at 4000 feet AGL
scattered clouds at 10000 feet AGL
Weather: FU  (smoke)

METAR text: OPLA 222125Z 12004KT 4000 FU FEW040 SCT100 09/05 Q1017 RMK QFE992 RMK A30.02
Conditions at: OPLA (LAHORE (CIV/MIL), PK) observed 2125 UTC 22 January 2019
Temperature: 9.0°C (48°F)
Dewpoint: 5.0°C (41°F) [RH = 76%]
Pressure (altimeter): 30.03 inches Hg (1017.0 mb)
Winds: from the ESE (120 degrees) at 5 MPH (4 knots; 2.1 m/s)
Visibility: 2.49 miles (4.01 km)
Ceiling: at least 12,000 feet AGL
Clouds: few clouds at 4000 feet AGL
scattered clouds at 10000 feet AGL
Weather: FU  (smoke)

METAR text: OPLA 222055Z 00000KT 4000 FU FEW040 SCT100 08/06 Q1017 RMK TEMPO 32015G30KT 1000 TSRA FEW030CB RMK QFE992 RMK A30.00
Conditions at: OPLA (LAHORE (CIV/MIL), PK) observed 2055 UTC 22 January 2019
Temperature: 8.0°C (46°F)
Dewpoint: 6.0°C (43°F) [RH = 87%]
Pressure (altimeter): 30.03 inches Hg (1017.0 mb)
Winds: calm
Visibility: 2.49 miles (4.01 km)
Ceiling: at least 12,000 feet AGL
Clouds: few clouds at 4000 feet AGL
scattered clouds at 10000 feet AGL
Weather: FU  (smoke)

METAR text: OPLA 222000Z 07003KT 4000 FU SCT040 SCT100 08/06 Q1017 RMK TEMPO 32015G30KT 1000 TSRA FEW030CB RMK QFE992 RMK A30.02
Conditions at: OPLA (LAHORE (CIV/MIL), PK) observed 2000 UTC 22 January 2019
Temperature: 8.0°C (46°F)
Dewpoint: 6.0°C (43°F) [RH = 87%]
Pressure (altimeter): 30.03 inches Hg (1017.0 mb)
Winds: from the ENE (70 degrees) at 3 MPH (3 knots; 1.5 m/s)
Visibility: 2.49 miles (4.01 km)
Ceiling: at least 12,000 feet AGL
Clouds: scattered clouds at 4000 feet AGL
scattered clouds at 10000 feet AGL
Weather: FU  (smoke)

METAR text: OPLA 221900Z 09004KT 3000 FEW030CB SCT100 BKN100 09/07 Q1017 RMK TS RE RA TEMPO 32015G30KT 1000 TSRA FEW030CB RMK QFE992 RMK A30.03
Conditions at: OPLA (LAHORE (CIV/MIL), PK) observed 1900 UTC 22 January 2019
Temperature: 9.0°C (48°F)
Dewpoint: 7.0°C (45°F) [RH = 87%]
Pressure (altimeter): 30.03 inches Hg (1017.0 mb)
Winds: from the E (90 degrees) at 5 MPH (4 knots; 2.1 m/s)
Visibility: 1.86 miles (2.99 km)
Ceiling: 10000 feet AGL
Clouds: few clouds at 3000 feet AGL
scattered clouds at 10000 feet AGL
broken clouds at 10000 feet AGL
Weather: no significant weather observed at this time

METAR text: OPLA 221825Z 09006KT 2000 FEW030CB BKN040 OVC100 09/08 Q1017 RMK TSRA RMK QFE991 RMK A30.02
Conditions at: OPLA (LAHORE (CIV/MIL), PK) observed 1825 UTC 22 January 2019
Temperature: 9.0°C (48°F)
Dewpoint: 8.0°C (46°F) [RH = 93%]
Pressure (altimeter): 30.03 inches Hg (1017.0 mb)
Winds: from the E (90 degrees) at 7 MPH (6 knots; 3.1 m/s)
Visibility: 1.24 miles (2.00 km)
Ceiling: 4000 feet AGL
Clouds: few clouds at 3000 feet AGL
broken clouds at 4000 feet AGL
overcast cloud deck at 10000 feet AGL
Weather: no significant weather observed at this time

METAR text: OPLA 221759Z 02009KT 1500 +GR TSRA FEW030CB BKN040 OVC100 09/08 Q1017 RMK TEMPO 32015G30KT 1000 TSRA FEW030CB RMK QFE991 RMK A30.02
Conditions at: OPLA (LAHORE (CIV/MIL), PK) observed 1759 UTC 22 January 2019
Temperature: 9.0°C (48°F)
Dewpoint: 8.0°C (46°F) [RH = 93%]
Pressure (altimeter): 30.03 inches Hg (1017.0 mb)
Winds: from the NNE (20 degrees) at 10 MPH (9 knots; 4.6 m/s)
Visibility: 0.93 miles (1.50 km)
Ceiling: 4000 feet AGL
Clouds: few clouds at 3000 feet AGL
broken clouds at 4000 feet AGL
overcast cloud deck at 10000 feet AGL
Weather: +GR TSRA  (unknown weather, rain associated with thunderstorm(s))

METAR text: OPLA 221725Z 36012KT 1500 R36/P2000 R18/P2000 TSRA FEW030CB SCT040 BKN100 10/08 Q1018 RMK RMID/P2000 RMK QFE992 RMK A30.02
Conditions at: OPLA (LAHORE (CIV/MIL), PK) observed 1725 UTC 22 January 2019
Temperature: 10.0°C (50°F)
Dewpoint: 8.0°C (46°F) [RH = 87%]
Pressure (altimeter): 30.06 inches Hg (1018.0 mb)
Winds: from the N (360 degrees) at 14 MPH (12 knots; 6.2 m/s)
Visibility: 0.93 miles (1.50 km)
Ceiling: 10000 feet AGL
Clouds: few clouds at 3000 feet AGL
scattered clouds at 4000 feet AGL
broken clouds at 10000 feet AGL
Weather: TSRA  (rain associated with thunderstorm(s))

METAR text: OPLA 221655Z 36011KT 1500 TSRA R36/P2000 R18/P2000 10/09 Q1017 RMK TEMPO 32015G30KT 1000 TSRA FEW030CB RMID/P2000 RMK QFE991 RMK A30.00
Conditions at: OPLA (LAHORE (CIV/MIL), PK) observed 1655 UTC 22 January 2019
Temperature: 10.0°C (50°F)
Dewpoint: 9.0°C (48°F) [RH = 93%]
Pressure (altimeter): 30.03 inches Hg (1017.0 mb)
Winds: from the N (360 degrees) at 13 MPH (11 knots; 5.7 m/s)
Visibility: 0.93 miles (1.50 km)
Ceiling: unknown
Clouds: missing
Weather: TSRA  (rain associated with thunderstorm(s))

METAR text: OPLA 221625Z 04004KT 3000 TSRA FEW030CB SCT040 BKN100 11/09 Q1017 RMK QFE991 RMK A30.00
Conditions at: OPLA (LAHORE (CIV/MIL), PK) observed 1625 UTC 22 January 2019
Temperature: 11.0°C (52°F)
Dewpoint: 9.0°C (48°F) [RH = 87%]
Pressure (altimeter): 30.03 inches Hg (1017.0 mb)
Winds: from the NE (40 degrees) at 5 MPH (4 knots; 2.1 m/s)
Visibility: 1.86 miles (2.99 km)
Ceiling: 10000 feet AGL
Clouds: few clouds at 3000 feet AGL
scattered clouds at 4000 feet AGL
broken clouds at 10000 feet AGL
Weather: TSRA  (rain associated with thunderstorm(s))

METAR text: OPLA 221555Z 17006KT 3000 TSRA FEW030CB SCT040 BKN100 11/09 Q1017 TEMPO 32025G30KT 1000 TSRA FEW030CB RMK QFE991 RMK A30.00
Conditions at: OPLA (LAHORE (CIV/MIL), PK) observed 1555 UTC 22 January 2019
Temperature: 11.0°C (52°F)
Dewpoint: 9.0°C (48°F) [RH = 87%]
Pressure (altimeter): 30.03 inches Hg (1017.0 mb)
Winds: from the S (170 degrees) at 7 MPH (6 knots; 3.1 m/s)
Visibility: 1.86 miles (2.99 km)
Ceiling: 10000 feet AGL
Clouds: few clouds at 3000 feet AGL
scattered clouds at 4000 feet AGL
broken clouds at 10000 feet AGL
Weather: TSRA  (rain associated with thunderstorm(s))

METAR text: OPLA 221525Z 07006KT 4000 VCTS FEW030CB SCT040 BKN100 11/09 Q1017 RMK QFE991 RMK A29.99
Conditions at: OPLA (LAHORE (CIV/MIL), PK) observed 1525 UTC 22 January 2019
Temperature: 11.0°C (52°F)
Dewpoint: 9.0°C (48°F) [RH = 87%]
Pressure (altimeter): 30.03 inches Hg (1017.0 mb)
Winds: from the ENE (70 degrees) at 7 MPH (6 knots; 3.1 m/s)
Visibility: 2.49 miles (4.01 km)
Ceiling: 10000 feet AGL
Clouds: few clouds at 3000 feet AGL
scattered clouds at 4000 feet AGL
broken clouds at 10000 feet AGL
Weather: VCTS  (thunderstorm in vicinity)

METAR text: OPLA 221455Z 07006KT 4000 VCTS FEW030CB SCT040 BKN100 11/09 Q1016 RMK TEMPO 32015G30KT 1000 TSRA FEW030CB RMK QFE991 RMK A29.99
Conditions at: OPLA (LAHORE (CIV/MIL), PK) observed 1455 UTC 22 January 2019
Temperature: 11.0°C (52°F)
Dewpoint: 9.0°C (48°F) [RH = 87%]
Pressure (altimeter): 30.00 inches Hg (1016.0 mb)
Winds: from the ENE (70 degrees) at 7 MPH (6 knots; 3.1 m/s)
Visibility: 2.49 miles (4.01 km)
Ceiling: 10000 feet AGL
Clouds: few clouds at 3000 feet AGL
scattered clouds at 4000 feet AGL
broken clouds at 10000 feet AGL
Weather: VCTS  (thunderstorm in vicinity)

METAR text: OPLA 221425Z 06005KT 4000 FU SCT040 SCT100 12/10 Q1016 RMK QFE991 RMK A29.98
Conditions at: OPLA (LAHORE (CIV/MIL), PK) observed 1425 UTC 22 January 2019
Temperature: 12.0°C (54°F)
Dewpoint: 10.0°C (50°F) [RH = 88%]
Pressure (altimeter): 30.00 inches Hg (1016.0 mb)
Winds: from the ENE (60 degrees) at 6 MPH (5 knots; 2.6 m/s)
Visibility: 2.49 miles (4.01 km)
Ceiling: at least 12,000 feet AGL
Clouds: scattered clouds at 4000 feet AGL
scattered clouds at 10000 feet AGL
Weather: FU  (smoke)

METAR text: OPLA 221355Z 06005KT 4000 FU SCT040 BKN100 12/10 Q1016 TEMPO 32015G30KT 1000 TSRA FEW030CB RMK QFE990 RMK A29.98
Conditions at: OPLA (LAHORE (CIV/MIL), PK) observed 1355 UTC 22 January 2019
Temperature: 12.0°C (54°F)
Dewpoint: 10.0°C (50°F) [RH = 88%]
Pressure (altimeter): 30.00 inches Hg (1016.0 mb)
Winds: from the ENE (60 degrees) at 6 MPH (5 knots; 2.6 m/s)
Visibility: 2.49 miles (4.01 km)
Ceiling: 10000 feet AGL
Clouds: scattered clouds at 4000 feet AGL
broken clouds at 10000 feet AGL
Weather: FU  (smoke)

METAR text: OPLA 221255Z 07005KT 4000 FU SCT040 SCT100 12/10 Q1015 TEMPO 32015G30KT 1000 TSRA FEW030CB RMK QFE989 RMK A29.96
Conditions at: OPLA (LAHORE (CIV/MIL), PK) observed 1255 UTC 22 January 2019
Temperature: 12.0°C (54°F)
Dewpoint: 10.0°C (50°F) [RH = 88%]
Pressure (altimeter): 29.97 inches Hg (1015.0 mb)
Winds: from the ENE (70 degrees) at 6 MPH (5 knots; 2.6 m/s)
Visibility: 2.49 miles (4.01 km)
Ceiling: at least 12,000 feet AGL
Clouds: scattered clouds at 4000 feet AGL
scattered clouds at 10000 feet AGL
Weather: FU  (smoke)

METAR text: OPLA 221225Z 09005KT 5000 FU SCT040 SCT100 13/10 Q1014 RMK QFE989 RMK A29.94
Conditions at: OPLA (LAHORE (CIV/MIL), PK) observed 1225 UTC 22 January 2019
Temperature: 13.0°C (55°F)
Dewpoint: 10.0°C (50°F) [RH = 82%]
Pressure (altimeter): 29.94 inches Hg (1014.0 mb)
Winds: from the E (90 degrees) at 6 MPH (5 knots; 2.6 m/s)
Visibility: 3 miles ( 5 km)
Ceiling: at least 12,000 feet AGL
Clouds: scattered clouds at 4000 feet AGL
scattered clouds at 10000 feet AGL
Weather: FU  (smoke)

METAR text: OPLA 221155Z 11008KT 5000 FU SCT040 SCT100 13/10 Q1014 NOSIG RMK QFE988 RMK A29.94
Conditions at: OPLA (LAHORE (CIV/MIL), PK) observed 1155 UTC 22 January 2019
Temperature: 13.0°C (55°F)
Dewpoint: 10.0°C (50°F) [RH = 82%]
Pressure (altimeter): 29.94 inches Hg (1014.0 mb)
Winds: from the ESE (110 degrees) at 9 MPH (8 knots; 4.1 m/s)
Visibility: 3 miles ( 5 km)
Ceiling: at least 12,000 feet AGL
Clouds: scattered clouds at 4000 feet AGL
scattered clouds at 10000 feet AGL
Weather: FU  (smoke)

METAR text: OPLA 221125Z 10007KT 5000 FU SCT040 SCT100 14/10 Q1014 RMK QFE988 RMK A29.94
Conditions at: OPLA (LAHORE (CIV/MIL), PK) observed 1125 UTC 22 January 2019
Temperature: 14.0°C (57°F)
Dewpoint: 10.0°C (50°F) [RH = 77%]
Pressure (altimeter): 29.94 inches Hg (1014.0 mb)
Winds: from the E (100 degrees) at 8 MPH (7 knots; 3.6 m/s)
Visibility: 3 miles ( 5 km)
Ceiling: at least 12,000 feet AGL
Clouds: scattered clouds at 4000 feet AGL
scattered clouds at 10000 feet AGL
Weather: FU  (smoke)

METAR text: OPLA 221059Z 09007KT 5000 FU SCT040 SCT100 14/10 Q1014 RMK TEMPO 32015G30KT 1000 TSRA FEW030CB RMK QFE988 RMK A29.94
Conditions at: OPLA (LAHORE (CIV/MIL), PK) observed 1059 UTC 22 January 2019
Temperature: 14.0°C (57°F)
Dewpoint: 10.0°C (50°F) [RH = 77%]
Pressure (altimeter): 29.94 inches Hg (1014.0 mb)
Winds: from the E (90 degrees) at 8 MPH (7 knots; 3.6 m/s)
Visibility: 3 miles ( 5 km)
Ceiling: at least 12,000 feet AGL
Clouds: scattered clouds at 4000 feet AGL
scattered clouds at 10000 feet AGL
Weather: FU  (smoke)

METAR text: OPLA 220955Z 08007KT 4000 FU SCT040 SCT100 14/10 Q1013 TEMPO 32015G30KT 1000 TSRA FEW030CB RMK QFE988 RMK A29.93
Conditions at: OPLA (LAHORE (CIV/MIL), PK) observed 0955 UTC 22 January 2019
Temperature: 14.0°C (57°F)
Dewpoint: 10.0°C (50°F) [RH = 77%]
Pressure (altimeter): 29.91 inches Hg (1013.0 mb)
Winds: from the E (80 degrees) at 8 MPH (7 knots; 3.6 m/s)
Visibility: 2.49 miles (4.01 km)
Ceiling: at least 12,000 feet AGL
Clouds: scattered clouds at 4000 feet AGL
scattered clouds at 10000 feet AGL
Weather: FU  (smoke)

METAR text: OPLA 220925Z 11009KT 4000 FU SCT040 BKN100 14/10 Q1013 RMK QFE988 RMK A29.93
Conditions at: OPLA (LAHORE (CIV/MIL), PK) observed 0925 UTC 22 January 2019
Temperature: 14.0°C (57°F)
Dewpoint: 10.0°C (50°F) [RH = 77%]
Pressure (altimeter): 29.91 inches Hg (1013.0 mb)
Winds: from the ESE (110 degrees) at 10 MPH (9 knots; 4.6 m/s)
Visibility: 2.49 miles (4.01 km)
Ceiling: 10000 feet AGL
Clouds: scattered clouds at 4000 feet AGL
broken clouds at 10000 feet AGL
Weather: FU  (smoke)

METAR text: OPLA 220855Z 09006KT 4000 FU SCT040 BKN100 14/10 Q1014 TEMPO 32015G30KT 1000 TSRA FEW030CB RMK QFE988 RMK A29.94
Conditions at: OPLA (LAHORE (CIV/MIL), PK) observed 0855 UTC 22 January 2019
Temperature: 14.0°C (57°F)
Dewpoint: 10.0°C (50°F) [RH = 77%]
Pressure (altimeter): 29.94 inches Hg (1014.0 mb)
Winds: from the E (90 degrees) at 7 MPH (6 knots; 3.1 m/s)
Visibility: 2.49 miles (4.01 km)
Ceiling: 10000 feet AGL
Clouds: scattered clouds at 4000 feet AGL
broken clouds at 10000 feet AGL
Weather: FU  (smoke)

METAR text: OPLA 220825Z 09004KT 4000 FU SCT040 BKN100 13/10 Q1014 RMK QFE988 RMK A29.94
Conditions at: OPLA (LAHORE (CIV/MIL), PK) observed 0825 UTC 22 January 2019
Temperature: 13.0°C (55°F)
Dewpoint: 10.0°C (50°F) [RH = 82%]
Pressure (altimeter): 29.94 inches Hg (1014.0 mb)
Winds: from the E (90 degrees) at 5 MPH (4 knots; 2.1 m/s)
Visibility: 2.49 miles (4.01 km)
Ceiling: 10000 feet AGL
Clouds: scattered clouds at 4000 feet AGL
broken clouds at 10000 feet AGL
Weather: FU  (smoke)

METAR text: OPLA 220755Z 13005KT 4000 FU SCT040 BKN100 13/10 Q1014 TEMPO 32015G30KT 1000 TSRA FEW030CB RMK QFE988 RMK A29.94
Conditions at: OPLA (LAHORE (CIV/MIL), PK) observed 0755 UTC 22 January 2019
Temperature: 13.0°C (55°F)
Dewpoint: 10.0°C (50°F) [RH = 82%]
Pressure (altimeter): 29.94 inches Hg (1014.0 mb)
Winds: from the SE (130 degrees) at 6 MPH (5 knots; 2.6 m/s)
Visibility: 2.49 miles (4.01 km)
Ceiling: 10000 feet AGL
Clouds: scattered clouds at 4000 feet AGL
broken clouds at 10000 feet AGL
Weather: FU  (smoke)

Forecast for: OPLA (LAHORE (CIV/MIL), PK)
Text: TAF OPLA 231545Z 2318/2424 34004KT 4000 FU NSC TX20/2410Z TN06/2401Z
Forecast period: 1800 UTC 23 January 2019 to 0500 UTC 24 January 2019
Forecast type: FROM: standard forecast or significant change
Winds: from the NNW (340 degrees) at 5 MPH (4 knots; 2.1 m/s)
Visibility: 2.49 miles (4.01 km)
Ceiling: unknown
Clouds: missing
Weather: FU  (smoke)
Text: TEMPO 2400/2405 VRB02KT 0800 FG
Forecast period: 0000 to 0500 UTC 24 January 2019
Forecast type: TEMPORARY: The following changes expected for less than half the time period
Winds: variable direction winds at 2 MPH (2 knots; 1.0 m/s)
Visibility: 0.50 miles (0.80 km)
Ceiling: unknown
Clouds: missing
Weather: FG  (fog)
Text: FM240500 33005KT 4000 FU SCT200
Forecast period: 0500 UTC 24 January 2019 to 0000 UTC 25 January 2019
Forecast type: FROM: standard forecast or significant change
Winds: from the NNW (330 degrees) at 6 MPH (5 knots; 2.6 m/s)
Visibility: 2.49 miles (4.01 km)
Ceiling: at least 12,000 feet AGL
Clouds: scattered clouds at 20000 feet AGL
Weather: FU  (smoke)